sensor_id;sensor_type;location;lat;lon;timestamp;temperature;humidity
25582;DHT22;13462;50.764;4.332;2022-11-15T00:02:07;12.00;99.90
25582;DHT22;13462;50.764;4.332;2022-11-15T00:04:41;12.10;99.90
25582;DHT22;13462;50.764;4.332;2022-11-15T00:07:09;12.10;99.90
25582;DHT22;13462;50.764;4.332;2022-11-15T00:09:34;12.10;99.90
25582;DHT22;13462;50.764;4.332;2022-11-15T00:12:03;12.10;99.90
25582;DHT22;13462;50.764;4.332;2022-11-15T00:14:29;12.10;99.90
25582;DHT22;13462;50.764;4.332;2022-11-15T00:16:54;12.20;99.90
25582;DHT22;13462;50.764;4.332;2022-11-15T00:19:23;12.20;99.90
25582;DHT22;13462;50.764;4.332;2022-11-15T00:21:49;12.20;99.90
25582;DHT22;13462;50.764;4.332;2022-11-15T00:24:15;12.20;99.90
25582;DHT22;13462;50.764;4.332;2022-11-15T00:26:41;12.20;99.90
25582;DHT22;13462;50.764;4.332;2022-11-15T00:29:07;12.30;99.90
25582;DHT22;13462;50.764;4.332;2022-11-15T00:31:33;12.20;99.90
25582;DHT22;13462;50.764;4.332;2022-11-15T00:33:59;12.20;99.90
25582;DHT22;13462;50.764;4.332;2022-11-15T00:36:27;12.30;99.90
25582;DHT22;13462;50.764;4.332;2022-11-15T00:38:53;12.30;99.90
25582;DHT22;13462;50.764;4.332;2022-11-15T00:41:19;12.30;99.90
25582;DHT22;13462;50.764;4.332;2022-11-15T00:43:45;12.30;99.90
25582;DHT22;13462;50.764;4.332;2022-11-15T00:46:11;12.30;99.90
25582;DHT22;13462;50.764;4.332;2022-11-15T00:48:40;12.30;99.90
25582;DHT22;13462;50.764;4.332;2022-11-15T00:51:05;12.30;99.90
25582;DHT22;13462;50.764;4.332;2022-11-15T00:53:31;12.40;99.90
25582;DHT22;13462;50.764;4.332;2022-11-15T00:55:57;12.40;99.90
25582;DHT22;13462;50.764;4.332;2022-11-15T00:58:22;12.40;99.90
25582;DHT22;13462;50.764;4.332;2022-11-15T01:00:48;12.40;99.90
25582;DHT22;13462;50.764;4.332;2022-11-15T01:03:14;12.40;99.90
25582;DHT22;13462;50.764;4.332;2022-11-15T01:05:40;12.40;99.90
25582;DHT22;13462;50.764;4.332;2022-11-15T01:08:06;12.40;99.90
25582;DHT22;13462;50.764;4.332;2022-11-15T01:10:32;12.40;99.90
25582;DHT22;13462;50.764;4.332;2022-11-15T01:12:57;12.40;99.90
25582;DHT22;13462;50.764;4.332;2022-11-15T01:15:23;12.40;99.90
25582;DHT22;13462;50.764;4.332;2022-11-15T01:17:52;12.40;99.90
25582;DHT22;13462;50.764;4.332;2022-11-15T01:20:18;12.40;99.90
25582;DHT22;13462;50.764;4.332;2022-11-15T01:22:44;12.40;99.90
25582;DHT22;13462;50.764;4.332;2022-11-15T01:25:10;12.50;99.90
25582;DHT22;13462;50.764;4.332;2022-11-15T01:27:35;12.40;99.90
25582;DHT22;13462;50.764;4.332;2022-11-15T01:30:01;12.40;99.90
25582;DHT22;13462;50.764;4.332;2022-11-15T01:32:27;12.40;99.90
25582;DHT22;13462;50.764;4.332;2022-11-15T01:34:53;12.40;99.90
25582;DHT22;13462;50.764;4.332;2022-11-15T01:37:19;12.40;99.90
25582;DHT22;13462;50.764;4.332;2022-11-15T01:39:48;12.40;99.90
25582;DHT22;13462;50.764;4.332;2022-11-15T01:42:14;12.40;99.90
25582;DHT22;13462;50.764;4.332;2022-11-15T01:44:48;12.30;99.90
25582;DHT22;13462;50.764;4.332;2022-11-15T01:47:20;12.30;99.90
25582;DHT22;13462;50.764;4.332;2022-11-15T01:50:09;12.30;99.90
25582;DHT22;13462;50.764;4.332;2022-11-15T01:52:36;12.40;99.90
25582;DHT22;13462;50.764;4.332;2022-11-15T01:55:37;12.40;99.90
25582;DHT22;13462;50.764;4.332;2022-11-15T01:58:04;12.50;99.90
25582;DHT22;13462;50.764;4.332;2022-11-15T02:00:34;12.50;99.90
25582;DHT22;13462;50.764;4.332;2022-11-15T02:12:45;12.40;99.90
25582;DHT22;13462;50.764;4.332;2022-11-15T02:15:12;12.40;99.90
25582;DHT22;13462;50.764;4.332;2022-11-15T02:18:04;12.40;99.90
25582;DHT22;13462;50.764;4.332;2022-11-15T02:29:07;12.50;99.90
25582;DHT22;13462;50.764;4.332;2022-11-15T02:34:20;12.30;99.90
25582;DHT22;13462;50.764;4.332;2022-11-15T02:37:03;12.40;99.90
25582;DHT22;13462;50.764;4.332;2022-11-15T02:39:53;12.40;99.90
25582;DHT22;13462;50.764;4.332;2022-11-15T02:42:45;12.30;99.90
25582;DHT22;13462;50.764;4.332;2022-11-15T02:45:36;12.20;99.90
25582;DHT22;13462;50.764;4.332;2022-11-15T02:48:12;12.30;99.90
25582;DHT22;13462;50.764;4.332;2022-11-15T02:50:39;12.30;99.90
25582;DHT22;13462;50.764;4.332;2022-11-15T02:53:07;12.30;99.90
25582;DHT22;13462;50.764;4.332;2022-11-15T02:55:37;12.30;99.90
25582;DHT22;13462;50.764;4.332;2022-11-15T02:58:28;12.20;99.90
25582;DHT22;13462;50.764;4.332;2022-11-15T03:03:46;12.20;99.90
25582;DHT22;13462;50.764;4.332;2022-11-15T03:06:38;12.20;99.90
25582;DHT22;13462;50.764;4.332;2022-11-15T03:09:28;12.10;99.90
25582;DHT22;13462;50.764;4.332;2022-11-15T03:12:16;12.20;99.90
25582;DHT22;13462;50.764;4.332;2022-11-15T03:15:07;12.20;99.90
25582;DHT22;13462;50.764;4.332;2022-11-15T03:17:43;12.20;99.90
25582;DHT22;13462;50.764;4.332;2022-11-15T03:20:13;12.20;99.90
25582;DHT22;13462;50.764;4.332;2022-11-15T03:22:43;12.10;99.90
25582;DHT22;13462;50.764;4.332;2022-11-15T03:25:12;12.00;99.90
25582;DHT22;13462;50.764;4.332;2022-11-15T03:27:43;12.00;99.90
25582;DHT22;13462;50.764;4.332;2022-11-15T03:30:11;12.00;99.90
25582;DHT22;13462;50.764;4.332;2022-11-15T03:32:42;12.00;99.90
25582;DHT22;13462;50.764;4.332;2022-11-15T03:35:25;12.00;99.90
25582;DHT22;13462;50.764;4.332;2022-11-15T03:38:37;12.00;99.90
25582;DHT22;13462;50.764;4.332;2022-11-15T03:41:03;11.90;99.90
25582;DHT22;13462;50.764;4.332;2022-11-15T03:46:46;11.80;99.90
25582;DHT22;13462;50.764;4.332;2022-11-15T03:49:27;11.80;99.90
25582;DHT22;13462;50.764;4.332;2022-11-15T03:51:57;11.80;99.90
25582;DHT22;13462;50.764;4.332;2022-11-15T03:54:23;11.80;99.90
25582;DHT22;13462;50.764;4.332;2022-11-15T03:56:48;11.80;99.90
25582;DHT22;13462;50.764;4.332;2022-11-15T03:59:14;11.80;99.90
25582;DHT22;13462;50.764;4.332;2022-11-15T04:01:40;11.80;99.90
25582;DHT22;13462;50.764;4.332;2022-11-15T04:04:05;11.80;99.90
25582;DHT22;13462;50.764;4.332;2022-11-15T04:06:31;11.80;99.90
25582;DHT22;13462;50.764;4.332;2022-11-15T04:08:57;11.70;99.90
25582;DHT22;13462;50.764;4.332;2022-11-15T04:11:22;11.70;99.90
25582;DHT22;13462;50.764;4.332;2022-11-15T04:13:48;11.50;99.90
25582;DHT22;13462;50.764;4.332;2022-11-15T04:16:14;11.50;99.90
25582;DHT22;13462;50.764;4.332;2022-11-15T04:18:39;11.70;99.90
25582;DHT22;13462;50.764;4.332;2022-11-15T04:21:05;11.80;99.90
25582;DHT22;13462;50.764;4.332;2022-11-15T04:23:50;11.80;99.90
25582;DHT22;13462;50.764;4.332;2022-11-15T04:26:23;11.80;99.90
25582;DHT22;13462;50.764;4.332;2022-11-15T04:28:49;11.70;99.90
25582;DHT22;13462;50.764;4.332;2022-11-15T04:31:34;11.70;99.90
25582;DHT22;13462;50.764;4.332;2022-11-15T04:34:00;11.50;99.90
25582;DHT22;13462;50.764;4.332;2022-11-15T04:36:25;11.40;99.90
25582;DHT22;13462;50.764;4.332;2022-11-15T04:39:09;11.40;99.90
25582;DHT22;13462;50.764;4.332;2022-11-15T04:41:35;11.30;99.90
25582;DHT22;13462;50.764;4.332;2022-11-15T04:44:01;11.30;99.90
25582;DHT22;13462;50.764;4.332;2022-11-15T04:46:27;11.30;99.90
25582;DHT22;13462;50.764;4.332;2022-11-15T04:48:53;11.30;99.90
25582;DHT22;13462;50.764;4.332;2022-11-15T04:51:19;11.40;99.90
25582;DHT22;13462;50.764;4.332;2022-11-15T04:53:45;11.40;99.90
25582;DHT22;13462;50.764;4.332;2022-11-15T04:56:11;11.20;99.90
25582;DHT22;13462;50.764;4.332;2022-11-15T04:58:37;11.10;99.90
25582;DHT22;13462;50.764;4.332;2022-11-15T05:01:10;11.10;99.90
25582;DHT22;13462;50.764;4.332;2022-11-15T05:03:37;10.90;99.90
25582;DHT22;13462;50.764;4.332;2022-11-15T05:06:22;10.90;99.90
25582;DHT22;13462;50.764;4.332;2022-11-15T05:08:47;10.90;99.90
25582;DHT22;13462;50.764;4.332;2022-11-15T05:11:13;10.90;99.90
25582;DHT22;13462;50.764;4.332;2022-11-15T05:13:39;10.90;99.90
25582;DHT22;13462;50.764;4.332;2022-11-15T05:16:04;10.90;99.90
25582;DHT22;13462;50.764;4.332;2022-11-15T05:18:33;10.70;99.90
25582;DHT22;13462;50.764;4.332;2022-11-15T05:21:06;10.70;99.90
25582;DHT22;13462;50.764;4.332;2022-11-15T05:23:42;10.70;99.90
25582;DHT22;13462;50.764;4.332;2022-11-15T05:26:09;10.70;99.90
25582;DHT22;13462;50.764;4.332;2022-11-15T05:28:35;10.60;99.90
25582;DHT22;13462;50.764;4.332;2022-11-15T05:31:07;10.60;99.90
25582;DHT22;13462;50.764;4.332;2022-11-15T05:33:36;10.60;99.90
25582;DHT22;13462;50.764;4.332;2022-11-15T05:36:17;10.60;99.90
25582;DHT22;13462;50.764;4.332;2022-11-15T05:38:48;10.50;99.90
25582;DHT22;13462;50.764;4.332;2022-11-15T05:41:16;10.50;99.90
25582;DHT22;13462;50.764;4.332;2022-11-15T05:43:43;10.50;99.90
25582;DHT22;13462;50.764;4.332;2022-11-15T05:46:09;10.50;99.90
25582;DHT22;13462;50.764;4.332;2022-11-15T05:48:36;10.40;99.90
25582;DHT22;13462;50.764;4.332;2022-11-15T05:51:03;10.40;99.90
25582;DHT22;13462;50.764;4.332;2022-11-15T05:53:33;10.40;99.90
25582;DHT22;13462;50.764;4.332;2022-11-15T05:55:58;10.50;99.90
25582;DHT22;13462;50.764;4.332;2022-11-15T05:58:24;10.50;99.90
25582;DHT22;13462;50.764;4.332;2022-11-15T06:00:50;10.40;99.90
25582;DHT22;13462;50.764;4.332;2022-11-15T06:03:19;10.40;99.90
25582;DHT22;13462;50.764;4.332;2022-11-15T06:05:44;10.40;99.90
25582;DHT22;13462;50.764;4.332;2022-11-15T06:08:13;10.50;99.90
25582;DHT22;13462;50.764;4.332;2022-11-15T06:10:38;10.40;99.90
25582;DHT22;13462;50.764;4.332;2022-11-15T06:13:05;10.40;99.90
25582;DHT22;13462;50.764;4.332;2022-11-15T06:15:32;10.30;99.90
25582;DHT22;13462;50.764;4.332;2022-11-15T06:17:58;10.20;99.90
25582;DHT22;13462;50.764;4.332;2022-11-15T06:20:26;10.20;99.90
25582;DHT22;13462;50.764;4.332;2022-11-15T06:22:57;10.10;99.90
25582;DHT22;13462;50.764;4.332;2022-11-15T06:25:23;10.20;99.90
25582;DHT22;13462;50.764;4.332;2022-11-15T06:27:56;10.20;99.90
25582;DHT22;13462;50.764;4.332;2022-11-15T06:30:22;10.20;99.90
25582;DHT22;13462;50.764;4.332;2022-11-15T06:32:59;10.10;99.90
25582;DHT22;13462;50.764;4.332;2022-11-15T06:35:26;10.00;99.90
25582;DHT22;13462;50.764;4.332;2022-11-15T06:37:54;10.10;99.90
25582;DHT22;13462;50.764;4.332;2022-11-15T06:40:23;10.10;99.90
25582;DHT22;13462;50.764;4.332;2022-11-15T06:43:14;10.10;99.90
25582;DHT22;13462;50.764;4.332;2022-11-15T06:45:45;10.10;99.90
25582;DHT22;13462;50.764;4.332;2022-11-15T06:48:39;9.90;99.90
25582;DHT22;13462;50.764;4.332;2022-11-15T06:51:05;9.90;99.90
25582;DHT22;13462;50.764;4.332;2022-11-15T06:53:31;9.90;99.90
25582;DHT22;13462;50.764;4.332;2022-11-15T06:56:04;9.90;99.90
25582;DHT22;13462;50.764;4.332;2022-11-15T06:58:31;9.90;99.90
25582;DHT22;13462;50.764;4.332;2022-11-15T07:01:06;9.80;99.90
25582;DHT22;13462;50.764;4.332;2022-11-15T07:03:35;9.80;99.90
25582;DHT22;13462;50.764;4.332;2022-11-15T07:06:02;9.80;99.90
25582;DHT22;13462;50.764;4.332;2022-11-15T07:08:28;9.70;99.90
25582;DHT22;13462;50.764;4.332;2022-11-15T07:10:57;9.80;99.90
25582;DHT22;13462;50.764;4.332;2022-11-15T07:13:27;9.80;99.90
25582;DHT22;13462;50.764;4.332;2022-11-15T07:15:53;9.80;99.90
25582;DHT22;13462;50.764;4.332;2022-11-15T07:18:18;9.80;99.90
25582;DHT22;13462;50.764;4.332;2022-11-15T07:20:44;9.80;99.90
25582;DHT22;13462;50.764;4.332;2022-11-15T07:23:10;9.70;99.90
25582;DHT22;13462;50.764;4.332;2022-11-15T07:28:12;9.80;99.90
25582;DHT22;13462;50.764;4.332;2022-11-15T07:30:38;9.80;99.90
25582;DHT22;13462;50.764;4.332;2022-11-15T07:33:06;9.80;99.90
25582;DHT22;13462;50.764;4.332;2022-11-15T07:35:31;9.90;99.90
25582;DHT22;13462;50.764;4.332;2022-11-15T07:37:58;9.90;99.90
25582;DHT22;13462;50.764;4.332;2022-11-15T07:40:26;9.90;99.90
25582;DHT22;13462;50.764;4.332;2022-11-15T07:42:51;9.90;99.90
25582;DHT22;13462;50.764;4.332;2022-11-15T07:45:22;10.00;99.90
25582;DHT22;13462;50.764;4.332;2022-11-15T07:47:52;9.90;99.90
25582;DHT22;13462;50.764;4.332;2022-11-15T07:50:18;10.00;99.90
25582;DHT22;13462;50.764;4.332;2022-11-15T07:52:44;10.10;99.90
25582;DHT22;13462;50.764;4.332;2022-11-15T07:55:10;10.10;99.90
25582;DHT22;13462;50.764;4.332;2022-11-15T07:57:36;10.10;99.90
25582;DHT22;13462;50.764;4.332;2022-11-15T08:00:19;10.30;99.90
25582;DHT22;13462;50.764;4.332;2022-11-15T08:02:45;10.40;99.90
25582;DHT22;13462;50.764;4.332;2022-11-15T08:05:10;10.40;99.90
25582;DHT22;13462;50.764;4.332;2022-11-15T08:07:36;10.40;99.90
25582;DHT22;13462;50.764;4.332;2022-11-15T08:10:04;10.50;99.90
25582;DHT22;13462;50.764;4.332;2022-11-15T08:12:31;10.50;99.90
25582;DHT22;13462;50.764;4.332;2022-11-15T08:15:00;10.60;99.90
25582;DHT22;13462;50.764;4.332;2022-11-15T08:17:39;10.60;99.90
25582;DHT22;13462;50.764;4.332;2022-11-15T08:20:05;10.70;99.90
25582;DHT22;13462;50.764;4.332;2022-11-15T08:22:34;10.70;99.90
25582;DHT22;13462;50.764;4.332;2022-11-15T08:25:00;10.80;99.90
25582;DHT22;13462;50.764;4.332;2022-11-15T08:27:25;10.90;99.90
25582;DHT22;13462;50.764;4.332;2022-11-15T08:29:51;11.00;99.90
25582;DHT22;13462;50.764;4.332;2022-11-15T08:32:19;11.20;99.90
25582;DHT22;13462;50.764;4.332;2022-11-15T08:34:45;11.50;99.90
25582;DHT22;13462;50.764;4.332;2022-11-15T08:37:11;11.90;99.90
25582;DHT22;13462;50.764;4.332;2022-11-15T08:39:36;12.20;99.90
25582;DHT22;13462;50.764;4.332;2022-11-15T08:42:03;12.40;99.90
25582;DHT22;13462;50.764;4.332;2022-11-15T08:44:28;12.20;99.90
25582;DHT22;13462;50.764;4.332;2022-11-15T08:46:57;12.00;99.90
25582;DHT22;13462;50.764;4.332;2022-11-15T08:49:23;11.80;99.90
25582;DHT22;13462;50.764;4.332;2022-11-15T08:51:49;11.70;99.90
25582;DHT22;13462;50.764;4.332;2022-11-15T08:54:15;11.60;99.90
25582;DHT22;13462;50.764;4.332;2022-11-15T08:56:40;11.70;99.90
25582;DHT22;13462;50.764;4.332;2022-11-15T08:59:06;12.10;99.90
25582;DHT22;13462;50.764;4.332;2022-11-15T09:01:32;12.70;99.90
25582;DHT22;13462;50.764;4.332;2022-11-15T09:03:58;13.40;99.90
25582;DHT22;13462;50.764;4.332;2022-11-15T09:06:23;14.30;99.90
25582;DHT22;13462;50.764;4.332;2022-11-15T09:08:49;14.80;99.90
25582;DHT22;13462;50.764;4.332;2022-11-15T09:11:15;14.70;99.90
25582;DHT22;13462;50.764;4.332;2022-11-15T09:13:43;15.20;99.90
25582;DHT22;13462;50.764;4.332;2022-11-15T09:16:09;15.80;99.90
25582;DHT22;13462;50.764;4.332;2022-11-15T09:18:39;16.70;99.90
25582;DHT22;13462;50.764;4.332;2022-11-15T09:21:07;17.30;99.90
25582;DHT22;13462;50.764;4.332;2022-11-15T09:23:33;18.00;99.90
25582;DHT22;13462;50.764;4.332;2022-11-15T09:26:03;18.50;99.90
25582;DHT22;13462;50.764;4.332;2022-11-15T09:28:43;18.70;99.90
25582;DHT22;13462;50.764;4.332;2022-11-15T09:31:09;18.50;99.90
25582;DHT22;13462;50.764;4.332;2022-11-15T09:33:36;18.40;99.90
25582;DHT22;13462;50.764;4.332;2022-11-15T09:36:06;18.40;99.90
25582;DHT22;13462;50.764;4.332;2022-11-15T09:38:32;18.90;99.90
25582;DHT22;13462;50.764;4.332;2022-11-15T09:44:00;19.40;98.90
25582;DHT22;13462;50.764;4.332;2022-11-15T09:49:08;19.00;99.80
25582;DHT22;13462;50.764;4.332;2022-11-15T09:51:41;18.80;99.90
25582;DHT22;13462;50.764;4.332;2022-11-15T09:55:00;18.70;99.90
25582;DHT22;13462;50.764;4.332;2022-11-15T09:57:48;18.50;99.90
25582;DHT22;13462;50.764;4.332;2022-11-15T10:00:35;18.40;99.90
25582;DHT22;13462;50.764;4.332;2022-11-15T10:04:04;18.40;99.90
25582;DHT22;13462;50.764;4.332;2022-11-15T10:06:32;18.60;99.90
25582;DHT22;13462;50.764;4.332;2022-11-15T10:09:24;18.90;99.90
25582;DHT22;13462;50.764;4.332;2022-11-15T10:11:51;18.70;99.90
25582;DHT22;13462;50.764;4.332;2022-11-15T10:14:25;18.50;99.90
25582;DHT22;13462;50.764;4.332;2022-11-15T10:22:24;19.50;98.70
25582;DHT22;13462;50.764;4.332;2022-11-15T10:27:34;20.20;96.80
25582;DHT22;13462;50.764;4.332;2022-11-15T10:30:00;19.70;97.40
25582;DHT22;13462;50.764;4.332;2022-11-15T10:32:28;19.70;97.10
25582;DHT22;13462;50.764;4.332;2022-11-15T10:35:17;19.30;97.50
25582;DHT22;13462;50.764;4.332;2022-11-15T10:41:07;17.00;99.90
25582;DHT22;13462;50.764;4.332;2022-11-15T10:43:33;16.20;99.90
25582;DHT22;13462;50.764;4.332;2022-11-15T10:46:26;16.00;99.90
25582;DHT22;13462;50.764;4.332;2022-11-15T10:48:52;15.70;99.90
25582;DHT22;13462;50.764;4.332;2022-11-15T10:51:28;15.90;99.90
25582;DHT22;13462;50.764;4.332;2022-11-15T10:53:59;15.90;99.90
25582;DHT22;13462;50.764;4.332;2022-11-15T10:56:35;15.80;99.90
25582;DHT22;13462;50.764;4.332;2022-11-15T10:59:01;15.50;99.90
25582;DHT22;13462;50.764;4.332;2022-11-15T11:01:28;15.20;99.90
25582;DHT22;13462;50.764;4.332;2022-11-15T11:04:05;15.10;99.90
25582;DHT22;13462;50.764;4.332;2022-11-15T11:06:53;15.00;99.90
25582;DHT22;13462;50.764;4.332;2022-11-15T11:09:48;14.90;99.90
25582;DHT22;13462;50.764;4.332;2022-11-15T11:12:27;14.70;99.90
25582;DHT22;13462;50.764;4.332;2022-11-15T11:14:55;14.70;99.90
25582;DHT22;13462;50.764;4.332;2022-11-15T11:17:45;14.90;99.90
25582;DHT22;13462;50.764;4.332;2022-11-15T11:20:41;14.80;99.90
25582;DHT22;13462;50.764;4.332;2022-11-15T11:26:29;14.60;99.90
25582;DHT22;13462;50.764;4.332;2022-11-15T11:32:10;14.60;99.90
25582;DHT22;13462;50.764;4.332;2022-11-15T11:35:22;14.40;99.90
25582;DHT22;13462;50.764;4.332;2022-11-15T11:37:59;14.40;99.90
25582;DHT22;13462;50.764;4.332;2022-11-15T11:40:44;14.30;99.90
25582;DHT22;13462;50.764;4.332;2022-11-15T11:43:18;14.00;99.90
25582;DHT22;13462;50.764;4.332;2022-11-15T11:48:44;13.50;99.90
25582;DHT22;13462;50.764;4.332;2022-11-15T11:51:24;13.60;99.90
25582;DHT22;13462;50.764;4.332;2022-11-15T11:54:17;13.60;99.90
25582;DHT22;13462;50.764;4.332;2022-11-15T11:56:45;13.60;99.90
25582;DHT22;13462;50.764;4.332;2022-11-15T11:59:49;13.60;99.90
25582;DHT22;13462;50.764;4.332;2022-11-15T12:02:35;13.40;99.90
25582;DHT22;13462;50.764;4.332;2022-11-15T12:05:13;13.30;99.90
25582;DHT22;13462;50.764;4.332;2022-11-15T12:07:41;13.20;99.90
25582;DHT22;13462;50.764;4.332;2022-11-15T12:10:22;13.20;99.90
25582;DHT22;13462;50.764;4.332;2022-11-15T12:13:03;13.30;99.90
25582;DHT22;13462;50.764;4.332;2022-11-15T12:15:44;13.30;99.90
25582;DHT22;13462;50.764;4.332;2022-11-15T12:18:14;13.40;99.90
25582;DHT22;13462;50.764;4.332;2022-11-15T12:20:54;13.40;99.90
25582;DHT22;13462;50.764;4.332;2022-11-15T12:23:26;13.40;99.90
25582;DHT22;13462;50.764;4.332;2022-11-15T12:26:08;13.40;99.90
25582;DHT22;13462;50.764;4.332;2022-11-15T12:28:38;13.30;99.90
25582;DHT22;13462;50.764;4.332;2022-11-15T12:31:35;13.30;99.90
25582;DHT22;13462;50.764;4.332;2022-11-15T12:34:05;13.40;99.90
25582;DHT22;13462;50.764;4.332;2022-11-15T12:36:42;13.40;99.90
25582;DHT22;13462;50.764;4.332;2022-11-15T12:39:10;13.40;99.90
25582;DHT22;13462;50.764;4.332;2022-11-15T12:41:39;13.40;99.90
25582;DHT22;13462;50.764;4.332;2022-11-15T12:44:11;13.40;99.90
25582;DHT22;13462;50.764;4.332;2022-11-15T13:00:04;13.90;99.90
25582;DHT22;13462;50.764;4.332;2022-11-15T13:07:59;14.20;99.90
25582;DHT22;13462;50.764;4.332;2022-11-15T13:10:34;14.10;99.90
25582;DHT22;13462;50.764;4.332;2022-11-15T13:13:09;14.00;99.90
25582;DHT22;13462;50.764;4.332;2022-11-15T13:15:53;14.00;99.90
25582;DHT22;13462;50.764;4.332;2022-11-15T13:18:37;13.90;99.90
25582;DHT22;13462;50.764;4.332;2022-11-15T13:21:21;13.90;99.90
25582;DHT22;13462;50.764;4.332;2022-11-15T13:24:14;13.80;99.90
25582;DHT22;13462;50.764;4.332;2022-11-15T13:26:41;13.80;99.90
25582;DHT22;13462;50.764;4.332;2022-11-15T13:29:19;13.70;99.90
25582;DHT22;13462;50.764;4.332;2022-11-15T13:31:46;13.60;99.90
25582;DHT22;13462;50.764;4.332;2022-11-15T13:34:35;13.60;99.90
25582;DHT22;13462;50.764;4.332;2022-11-15T13:37:12;13.60;99.90
25582;DHT22;13462;50.764;4.332;2022-11-15T13:39:38;13.60;99.90
25582;DHT22;13462;50.764;4.332;2022-11-15T13:42:04;13.60;99.90
25582;DHT22;13462;50.764;4.332;2022-11-15T13:44:32;13.60;99.90
25582;DHT22;13462;50.764;4.332;2022-11-15T13:47:03;13.60;99.90
25582;DHT22;13462;50.764;4.332;2022-11-15T13:49:33;13.60;99.90
25582;DHT22;13462;50.764;4.332;2022-11-15T13:52:01;13.70;99.90
25582;DHT22;13462;50.764;4.332;2022-11-15T13:54:39;13.70;99.90
25582;DHT22;13462;50.764;4.332;2022-11-15T14:00:37;13.60;99.90
25582;DHT22;13462;50.764;4.332;2022-11-15T14:03:15;13.70;99.90
25582;DHT22;13462;50.764;4.332;2022-11-15T14:05:41;13.70;99.90
25582;DHT22;13462;50.764;4.332;2022-11-15T14:10:47;13.60;99.90
25582;DHT22;13462;50.764;4.332;2022-11-15T14:13:32;13.50;99.90
25582;DHT22;13462;50.764;4.332;2022-11-15T14:16:18;13.50;99.90
25582;DHT22;13462;50.764;4.332;2022-11-15T14:18:48;13.50;99.90
25582;DHT22;13462;50.764;4.332;2022-11-15T14:21:15;13.50;99.90
25582;DHT22;13462;50.764;4.332;2022-11-15T14:23:44;13.50;99.90
25582;DHT22;13462;50.764;4.332;2022-11-15T14:26:30;13.40;99.90
25582;DHT22;13462;50.764;4.332;2022-11-15T14:29:23;13.40;99.90
25582;DHT22;13462;50.764;4.332;2022-11-15T14:31:53;13.30;99.90
25582;DHT22;13462;50.764;4.332;2022-11-15T14:34:20;13.20;99.90
25582;DHT22;13462;50.764;4.332;2022-11-15T14:43:27;13.10;99.90
25582;DHT22;13462;50.764;4.332;2022-11-15T14:45:53;13.00;99.90
25582;DHT22;13462;50.764;4.332;2022-11-15T14:48:18;13.00;99.90
25582;DHT22;13462;50.764;4.332;2022-11-15T14:50:48;13.00;99.90
25582;DHT22;13462;50.764;4.332;2022-11-15T14:53:16;13.00;99.90
25582;DHT22;13462;50.764;4.332;2022-11-15T14:55:45;13.00;99.90
25582;DHT22;13462;50.764;4.332;2022-11-15T14:58:14;13.00;99.90
25582;DHT22;13462;50.764;4.332;2022-11-15T15:00:41;13.10;99.90
25582;DHT22;13462;50.764;4.332;2022-11-15T15:03:07;13.00;99.90
25582;DHT22;13462;50.764;4.332;2022-11-15T15:05:43;13.00;99.90
25582;DHT22;13462;50.764;4.332;2022-11-15T15:08:19;12.90;99.90
25582;DHT22;13462;50.764;4.332;2022-11-15T15:10:46;12.90;99.90
25582;DHT22;13462;50.764;4.332;2022-11-15T15:13:20;12.90;99.90
25582;DHT22;13462;50.764;4.332;2022-11-15T15:15:50;12.90;99.90
25582;DHT22;13462;50.764;4.332;2022-11-15T15:18:19;12.80;99.90
25582;DHT22;13462;50.764;4.332;2022-11-15T15:20:50;12.80;99.90
25582;DHT22;13462;50.764;4.332;2022-11-15T15:23:19;12.80;99.90
25582;DHT22;13462;50.764;4.332;2022-11-15T15:25:46;12.70;99.90
25582;DHT22;13462;50.764;4.332;2022-11-15T15:28:15;12.80;99.90
25582;DHT22;13462;50.764;4.332;2022-11-15T15:30:41;12.70;99.90
25582;DHT22;13462;50.764;4.332;2022-11-15T15:33:06;12.60;99.90
25582;DHT22;13462;50.764;4.332;2022-11-15T15:35:34;12.60;99.90
25582;DHT22;13462;50.764;4.332;2022-11-15T15:38:00;12.60;99.90
25582;DHT22;13462;50.764;4.332;2022-11-15T15:40:28;12.60;99.90
25582;DHT22;13462;50.764;4.332;2022-11-15T15:42:54;12.50;99.90
25582;DHT22;13462;50.764;4.332;2022-11-15T15:45:20;12.60;99.90
25582;DHT22;13462;50.764;4.332;2022-11-15T15:47:46;12.60;99.90
25582;DHT22;13462;50.764;4.332;2022-11-15T15:50:20;12.60;99.90
25582;DHT22;13462;50.764;4.332;2022-11-15T15:52:46;12.60;99.90
25582;DHT22;13462;50.764;4.332;2022-11-15T15:55:12;12.60;99.90
25582;DHT22;13462;50.764;4.332;2022-11-15T15:57:38;12.60;99.90
25582;DHT22;13462;50.764;4.332;2022-11-15T16:00:05;12.60;99.90
25582;DHT22;13462;50.764;4.332;2022-11-15T16:02:31;12.50;99.90
25582;DHT22;13462;50.764;4.332;2022-11-15T16:04:57;12.60;99.90
25582;DHT22;13462;50.764;4.332;2022-11-15T16:07:23;12.60;99.90
25582;DHT22;13462;50.764;4.332;2022-11-15T16:09:53;12.50;99.90
25582;DHT22;13462;50.764;4.332;2022-11-15T16:12:26;12.50;99.90
25582;DHT22;13462;50.764;4.332;2022-11-15T16:14:52;12.50;99.90
25582;DHT22;13462;50.764;4.332;2022-11-15T16:17:20;12.50;99.90
25582;DHT22;13462;50.764;4.332;2022-11-15T16:19:47;12.50;99.90
25582;DHT22;13462;50.764;4.332;2022-11-15T16:22:12;12.50;99.90
25582;DHT22;13462;50.764;4.332;2022-11-15T16:24:38;12.60;99.90
25582;DHT22;13462;50.764;4.332;2022-11-15T16:27:14;12.50;99.90
25582;DHT22;13462;50.764;4.332;2022-11-15T16:29:42;12.50;99.90
25582;DHT22;13462;50.764;4.332;2022-11-15T16:32:08;12.40;99.90
25582;DHT22;13462;50.764;4.332;2022-11-15T16:34:36;12.50;99.90
25582;DHT22;13462;50.764;4.332;2022-11-15T16:37:02;12.50;99.90
25582;DHT22;13462;50.764;4.332;2022-11-15T16:39:28;12.50;99.90
25582;DHT22;13462;50.764;4.332;2022-11-15T16:41:56;12.50;99.90
25582;DHT22;13462;50.764;4.332;2022-11-15T16:44:22;12.50;99.90
25582;DHT22;13462;50.764;4.332;2022-11-15T16:46:49;12.40;99.90
25582;DHT22;13462;50.764;4.332;2022-11-15T16:49:20;12.50;99.90
25582;DHT22;13462;50.764;4.332;2022-11-15T16:51:46;12.50;99.90
25582;DHT22;13462;50.764;4.332;2022-11-15T16:54:13;12.50;99.90
25582;DHT22;13462;50.764;4.332;2022-11-15T16:56:39;12.60;99.90
25582;DHT22;13462;50.764;4.332;2022-11-15T16:59:05;12.50;99.90
25582;DHT22;13462;50.764;4.332;2022-11-15T17:01:35;12.60;99.90
25582;DHT22;13462;50.764;4.332;2022-11-15T17:04:02;12.50;99.90
25582;DHT22;13462;50.764;4.332;2022-11-15T17:06:38;12.50;99.90
25582;DHT22;13462;50.764;4.332;2022-11-15T17:09:04;12.40;99.90
25582;DHT22;13462;50.764;4.332;2022-11-15T17:11:29;12.50;99.90
25582;DHT22;13462;50.764;4.332;2022-11-15T17:13:58;12.50;99.90
25582;DHT22;13462;50.764;4.332;2022-11-15T17:16:25;12.50;99.90
25582;DHT22;13462;50.764;4.332;2022-11-15T17:18:51;12.60;99.90
25582;DHT22;13462;50.764;4.332;2022-11-15T17:21:20;12.60;99.90
25582;DHT22;13462;50.764;4.332;2022-11-15T17:24:01;12.60;99.90
25582;DHT22;13462;50.764;4.332;2022-11-15T17:26:27;12.50;99.90